Terminal Aerodrome Forecast
Issued by NWS Central Illinois

Home | Current Version | Previous Version | Text Only | Print | Product List | Glossary On
Versions: 1 2 3 4 5 6 7 8 9 10 11 12 13 14 15 16 17 18 19 20 21 22 23 24 25
925
FTUS43 KILX 240807 AAA
TAFSPI
TAF AMD
KSPI 240807Z 2408/2506 05009KT 4SM -SHRA BR SCT006 OVC035
     FM240900 06009KT 3SM -SHRA BR OVC006
     FM241600 09008KT 4SM BR VCSH OVC008
     FM241800 10009KT P6SM OVC008
     FM242100 12010KT 4SM -SHRA BR VCTS OVC008CB
     FM250000 14011G19KT 4SM -SHRA BR OVC008
     FM250200 19012G24KT 4SM -SHRA BR OVC010 WS020/21045KT=

USA.gov is the U.S. government's official web portal to all federal, state and local government web resources and services.